createdAt,value
2019-02-02T00:01:01.452Z,49.17
2019-02-02T00:03:31.423Z,60.43
2019-02-02T00:05:58.748Z,52.67
2019-02-02T00:08:26.083Z,49.43
2019-02-02T00:10:53.350Z,54.37
2019-02-02T00:13:20.624Z,58.47
2019-02-02T00:15:47.912Z,56.33
2019-02-02T00:18:15.303Z,69.23
2019-02-02T00:20:42.559Z,66.43
2019-02-02T00:23:09.809Z,64.47
2019-02-02T00:25:37.347Z,72.63
2019-02-02T00:28:04.651Z,70.83
2019-02-02T00:30:32.163Z,67.23
2019-02-02T00:32:59.439Z,69.63
2019-02-02T00:35:26.928Z,76.23
2019-02-02T00:37:54.209Z,79.83
2019-02-02T00:40:21.475Z,74.13
2019-02-02T00:42:48.722Z,84.53
2019-02-02T00:45:16.044Z,70.97
2019-02-02T00:47:43.472Z,71.20
2019-02-02T00:50:11.128Z,63.37
2019-02-02T00:52:38.413Z,72.97
2019-02-02T00:55:05.664Z,67.10
2019-02-02T00:57:32.903Z,62.97
2019-02-02T01:00:00.209Z,64.80
2019-02-02T01:02:27.527Z,60.77
2019-02-02T01:04:55.513Z,51.47
2019-02-02T01:07:22.808Z,60.63
2019-02-02T01:09:50.430Z,57.63
2019-02-02T01:12:17.668Z,51.23
2019-02-02T01:14:44.930Z,52.73
2019-02-02T01:17:12.192Z,49.53
2019-02-02T01:19:39.449Z,50.17
2019-02-02T01:22:06.710Z,49.57
2019-02-02T01:24:33.971Z,52.03
2019-02-02T01:27:01.263Z,50.47
2019-02-02T01:29:28.637Z,62.03
2019-02-02T01:31:55.893Z,40.63
2019-02-02T01:34:23.168Z,49.67
2019-02-02T01:37:09.889Z,57.43
2019-02-02T01:42:35.968Z,52.70
2019-02-02T01:45:04.355Z,56.10
2019-02-02T01:47:31.596Z,48.50
2019-02-02T01:49:59.393Z,58.87
2019-02-02T01:52:26.645Z,53.03
2019-02-02T01:54:54.018Z,56.97
2019-02-02T01:57:21.271Z,51.30
2019-02-02T01:59:48.551Z,54.50
2019-02-02T02:02:15.891Z,54.13
2019-02-02T02:04:43.160Z,58.10
2019-02-02T02:07:10.951Z,48.30
2019-02-02T02:09:38.750Z,55.13
2019-02-02T02:12:06.025Z,54.10
2019-02-02T02:14:33.569Z,53.20
2019-02-02T02:17:00.821Z,47.37
2019-02-02T02:19:28.236Z,45.70
2019-02-02T02:21:55.845Z,52.63
2019-02-02T02:24:23.205Z,52.80
2019-02-02T02:26:50.461Z,53.70
2019-02-02T02:29:18.076Z,58.33
2019-02-02T02:31:45.629Z,61.87
2019-02-02T02:34:12.975Z,59.03
2019-02-02T02:36:40.495Z,57.07
2019-02-02T02:39:08.105Z,56.90
2019-02-02T02:41:35.366Z,50.23
2019-02-02T02:44:02.756Z,61.27
2019-02-02T02:46:49.502Z,56.13
2019-02-02T02:49:17.016Z,58.53
2019-02-02T02:51:44.243Z,60.73
2019-02-02T02:54:30.994Z,59.90
2019-02-02T02:56:58.286Z,63.13
2019-02-02T02:59:25.558Z,66.27
2019-02-02T03:01:52.798Z,59.10
2019-02-02T03:04:20.164Z,67.43
2019-02-02T03:06:47.443Z,58.43
2019-02-02T03:09:14.967Z,67.53
2019-02-02T03:11:42.468Z,68.33
2019-02-02T03:14:10.098Z,68.00
2019-02-02T03:16:37.343Z,64.40
2019-02-02T03:19:04.678Z,63.60
2019-02-02T03:21:32.010Z,65.67
2019-02-02T03:23:59.368Z,61.50
2019-02-02T03:26:26.609Z,65.17
2019-02-02T03:28:53.924Z,74.90
2019-02-02T03:31:21.476Z,63.47
2019-02-02T03:33:48.725Z,66.63
2019-02-02T03:36:16.262Z,60.60
2019-02-02T03:38:43.508Z,68.20
2019-02-02T03:41:10.758Z,58.50
2019-02-02T03:43:38.118Z,69.83
2019-02-02T03:46:05.797Z,73.13
2019-02-02T03:48:33.141Z,69.10
2019-02-02T03:51:00.686Z,75.60
2019-02-02T03:53:27.933Z,74.70
2019-02-02T03:55:55.206Z,62.53
2019-02-02T03:58:22.457Z,72.73
2019-02-02T04:00:49.697Z,61.90
2019-02-02T04:03:16.970Z,58.60
2019-02-02T04:05:44.217Z,70.50
2019-02-02T04:08:11.709Z,66.23
2019-02-02T04:10:58.463Z,67.80
2019-02-02T04:13:25.721Z,71.10
2019-02-02T04:15:53.236Z,72.60
2019-02-02T04:18:20.795Z,62.00
2019-02-02T04:20:48.085Z,73.20
2019-02-02T04:23:15.451Z,66.40
2019-02-02T04:25:42.685Z,70.67
2019-02-02T04:28:09.928Z,72.57
2019-02-02T04:30:37.464Z,65.53
2019-02-02T04:33:05.212Z,79.07
2019-02-02T04:35:32.557Z,64.17
2019-02-02T04:37:59.899Z,55.77
2019-02-02T04:40:27.162Z,66.73
2019-02-02T04:42:54.434Z,68.27
2019-02-02T04:45:21.701Z,70.17
2019-02-02T04:47:48.950Z,60.47
2019-02-02T04:50:16.524Z,62.77
2019-02-02T04:52:43.933Z,60.10
2019-02-02T04:55:11.895Z,61.93
2019-02-02T04:57:39.231Z,59.37
2019-02-02T05:00:08.352Z,61.57
2019-02-02T05:02:36.167Z,57.63
2019-02-02T05:05:04.124Z,62.00
2019-02-02T05:07:31.428Z,53.83
2019-02-02T05:09:58.664Z,62.33
2019-02-02T05:12:25.921Z,59.63
2019-02-02T05:14:53.464Z,61.07
2019-02-02T05:17:20.734Z,60.97
2019-02-02T05:19:47.997Z,55.73
2019-02-02T05:22:15.224Z,60.70
2019-02-02T05:24:42.491Z,60.20
2019-02-02T05:27:09.770Z,62.80
2019-02-02T05:29:41.656Z,58.57
2019-02-02T05:32:06.186Z,51.80
2019-02-02T05:34:33.590Z,53.00
2019-02-02T05:37:00.877Z,59.17
2019-02-02T05:39:28.144Z,52.97
2019-02-02T05:41:55.499Z,51.53
2019-02-02T05:44:22.757Z,53.70
2019-02-02T05:46:50.120Z,53.07
2019-02-02T05:49:17.360Z,50.77
2019-02-02T05:51:44.611Z,49.47
2019-02-02T05:54:11.877Z,55.63
2019-02-02T05:56:39.119Z,56.80
2019-02-02T05:59:06.386Z,51.63
2019-02-02T06:01:33.638Z,55.20
2019-02-02T06:04:01.061Z,53.23
2019-02-02T06:06:28.408Z,56.83
2019-02-02T06:08:55.801Z,52.93
2019-02-02T06:11:23.124Z,60.03
2019-02-02T06:13:50.654Z,52.70
2019-02-02T06:16:17.924Z,47.40
2019-02-02T06:18:45.181Z,58.40
2019-02-02T06:21:12.438Z,53.73
2019-02-02T06:23:39.723Z,56.20
2019-02-02T06:26:07.256Z,59.30
2019-02-02T06:28:34.499Z,62.13
2019-02-02T06:31:01.845Z,55.50
2019-02-02T06:33:29.206Z,57.37
2019-02-02T06:35:56.502Z,58.23
2019-02-02T06:38:23.868Z,53.50
2019-02-02T06:40:51.256Z,53.43
2019-02-02T06:43:18.865Z,49.43
2019-02-02T06:45:46.110Z,54.60
2019-02-02T06:48:13.669Z,49.33
2019-02-02T06:50:41.023Z,63.87
2019-02-02T06:53:08.269Z,55.53
2019-02-02T06:55:35.627Z,68.47
2019-02-02T06:58:03.372Z,65.03
2019-02-02T07:00:30.999Z,54.87
2019-02-02T07:02:58.325Z,70.47
2019-02-02T07:05:25.603Z,70.03
2019-02-02T07:07:52.897Z,69.17
2019-02-02T07:10:23.653Z,66.00
2019-02-02T07:12:51.535Z,75.37
2019-02-02T07:15:19.936Z,71.30
2019-02-02T07:17:47.297Z,76.10
2019-02-02T07:20:14.785Z,77.07
2019-02-02T07:22:42.139Z,71.00
2019-02-02T07:25:09.538Z,82.53
2019-02-02T07:27:36.927Z,71.63
2019-02-02T07:30:05.410Z,74.60
2019-02-02T07:32:32.732Z,83.90
2019-02-02T07:35:01.123Z,85.97
2019-02-02T07:37:28.620Z,79.17
2019-02-02T07:39:55.902Z,84.63
2019-02-02T07:42:23.300Z,83.20
2019-02-02T07:44:51.004Z,91.33
2019-02-02T07:47:18.363Z,78.43
2019-02-02T07:49:45.641Z,80.33
2019-02-02T07:52:13.257Z,77.63
2019-02-02T07:54:40.542Z,75.50
2019-02-02T07:57:07.829Z,81.67
2019-02-02T07:59:35.358Z,76.90
2019-02-02T08:02:02.871Z,79.67
2019-02-02T08:04:30.164Z,79.60
2019-02-02T08:06:57.450Z,84.40
2019-02-02T08:09:24.838Z,80.70
2019-02-02T08:11:52.173Z,78.07
2019-02-02T08:14:19.408Z,83.80
2019-02-02T08:16:46.943Z,82.13
2019-02-02T08:19:14.744Z,79.27
2019-02-02T08:21:42.060Z,77.60
2019-02-02T08:24:09.340Z,86.33
2019-02-02T08:26:36.870Z,90.13
2019-02-02T08:29:04.180Z,81.53
2019-02-02T08:31:31.637Z,88.90
2019-02-02T08:33:58.885Z,81.57
2019-02-02T08:36:26.154Z,87.57
2019-02-02T08:38:53.440Z,85.43
2019-02-02T08:41:20.805Z,83.23
2019-02-02T08:43:48.180Z,86.70
2019-02-02T08:46:15.737Z,72.33
2019-02-02T08:48:43.095Z,84.87
2019-02-02T08:51:10.393Z,75.53
2019-02-02T08:53:38.012Z,82.30
2019-02-02T08:56:05.338Z,81.87
2019-02-02T08:58:32.722Z,85.80
2019-02-02T09:01:04.150Z,89.53
2019-02-02T09:03:29.512Z,83.83
2019-02-02T09:05:56.811Z,89.83
2019-02-02T09:08:24.440Z,86.77
2019-02-02T09:10:51.696Z,83.97
2019-02-02T09:13:19.230Z,86.87
2019-02-02T09:15:46.478Z,88.53
2019-02-02T09:18:13.790Z,85.83
2019-02-02T09:20:41.160Z,84.43
2019-02-02T09:23:26.503Z,75.80
2019-02-02T09:25:54.478Z,95.83
2019-02-02T09:28:21.718Z,96.37
2019-02-02T09:30:49.000Z,88.13
2019-02-02T09:33:16.384Z,83.30
2019-02-02T09:35:44.250Z,91.17
2019-02-02T09:38:12.340Z,91.00
2019-02-02T09:40:39.763Z,83.67
2019-02-02T09:43:07.139Z,87.57
2019-02-02T09:45:34.401Z,80.73
2019-02-02T09:48:01.650Z,68.50
2019-02-02T09:50:29.028Z,86.23
2019-02-02T09:52:56.281Z,92.30
2019-02-02T09:55:23.960Z,73.27
2019-02-02T09:57:55.184Z,81.77
2019-02-02T10:00:22.791Z,74.60
2019-02-02T10:02:50.456Z,74.93
2019-02-02T10:05:19.202Z,77.47
2019-02-02T10:07:46.709Z,75.17
2019-02-02T10:10:15.308Z,76.63
2019-02-02T10:12:42.664Z,75.53
2019-02-02T10:15:10.266Z,82.10
2019-02-02T10:17:37.634Z,85.40
2019-02-02T10:20:05.304Z,79.60
2019-02-02T10:22:32.600Z,80.90
2019-02-02T10:24:59.953Z,83.37
2019-02-02T10:27:27.303Z,76.13
2019-02-02T10:29:54.790Z,84.10
2019-02-02T10:32:22.154Z,87.63
2019-02-02T10:34:49.506Z,76.90
2019-02-02T10:37:17.096Z,78.83
2019-02-02T10:39:44.714Z,77.17
2019-02-02T10:42:11.964Z,85.47
2019-02-02T10:44:39.258Z,83.30
2019-02-02T10:47:06.543Z,71.77
2019-02-02T10:49:34.021Z,75.10
2019-02-02T10:52:01.550Z,71.20
2019-02-02T10:54:29.109Z,73.33
2019-02-02T10:56:56.388Z,86.33
2019-02-02T10:59:23.673Z,74.13
2019-02-02T11:01:51.515Z,65.00
2019-02-02T11:04:19.155Z,77.13
2019-02-02T11:06:46.641Z,79.63
2019-02-02T11:09:14.266Z,79.87
2019-02-02T11:11:41.703Z,72.90
2019-02-02T11:14:09.195Z,75.63
2019-02-02T11:16:36.565Z,77.10
2019-02-02T11:19:04.078Z,81.07
2019-02-02T11:21:31.619Z,78.33
2019-02-02T11:23:59.005Z,76.67
2019-02-02T11:26:26.319Z,70.20
2019-02-02T11:28:53.901Z,81.33
2019-02-02T11:31:21.294Z,85.77
2019-02-02T11:33:48.535Z,78.90
2019-02-02T11:36:15.813Z,86.07
2019-02-02T11:38:43.091Z,86.73
2019-02-02T11:41:10.446Z,92.87
2019-02-02T11:43:37.818Z,87.00
2019-02-02T11:46:05.236Z,91.77
2019-02-02T11:48:32.669Z,80.17
2019-02-02T11:51:00.197Z,74.27
2019-02-02T11:53:27.497Z,80.37
2019-02-02T11:55:54.889Z,80.63
2019-02-02T11:58:22.427Z,82.00
2019-02-02T12:00:49.795Z,73.40
2019-02-02T12:03:17.466Z,76.20
2019-02-02T12:05:44.848Z,84.43
2019-02-02T12:08:12.121Z,82.93
2019-02-02T12:10:39.527Z,77.73
2019-02-02T12:13:06.869Z,81.97
2019-02-02T12:15:34.702Z,84.87
2019-02-02T12:18:03.492Z,83.50
2019-02-02T12:20:33.106Z,76.87
2019-02-02T12:22:59.919Z,75.07
2019-02-02T12:25:27.394Z,81.63
2019-02-02T12:27:54.655Z,71.17
2019-02-02T12:30:23.244Z,63.87
2019-02-02T12:32:50.513Z,70.47
2019-02-02T12:35:18.645Z,64.60
2019-02-02T12:37:46.104Z,68.17
2019-02-02T12:40:13.855Z,62.40
2019-02-02T12:42:41.145Z,62.07
2019-02-02T12:45:10.218Z,61.17
2019-02-02T12:47:37.525Z,50.97
2019-02-02T12:50:05.179Z,54.20
2019-02-02T12:52:32.812Z,57.07
2019-02-02T12:55:00.404Z,54.80
2019-02-02T12:57:27.737Z,63.57
2019-02-02T12:59:55.010Z,59.43
2019-02-02T13:02:25.383Z,60.37
2019-02-02T13:04:52.089Z,62.80
2019-02-02T13:07:19.455Z,59.30
2019-02-02T13:09:46.707Z,62.20
2019-02-02T13:12:14.294Z,63.27
2019-02-02T13:14:41.672Z,66.43
2019-02-02T13:17:09.012Z,57.40
2019-02-02T13:19:36.557Z,63.70
2019-02-02T13:22:03.868Z,66.60
2019-02-02T13:24:31.394Z,61.73
2019-02-02T13:26:59.811Z,55.27
2019-02-02T13:29:27.078Z,53.43
2019-02-02T13:31:54.382Z,51.30
2019-02-02T13:34:21.677Z,54.30
2019-02-02T13:36:49.053Z,65.27
2019-02-02T13:39:16.389Z,63.23
2019-02-02T13:41:43.671Z,56.57
2019-02-02T13:44:11.034Z,49.97
2019-02-02T13:46:41.339Z,46.40
2019-02-02T13:49:10.948Z,49.47
2019-02-02T13:51:38.344Z,56.23
2019-02-02T13:54:05.628Z,56.80
2019-02-02T13:56:32.976Z,58.27
2019-02-02T13:59:00.266Z,67.70
2019-02-02T14:01:27.871Z,58.23
2019-02-02T14:03:55.199Z,56.60
2019-02-02T14:06:22.571Z,51.23
2019-02-02T14:08:49.940Z,50.47
2019-02-02T14:11:17.620Z,47.43
2019-02-02T14:13:45.131Z,57.93
2019-02-02T14:16:12.386Z,48.13
2019-02-02T14:18:39.694Z,51.40
2019-02-02T14:21:07.056Z,50.77
2019-02-02T14:23:34.418Z,59.00
2019-02-02T14:26:01.799Z,51.03
2019-02-02T14:28:29.506Z,59.27
2019-02-02T14:30:57.040Z,78.40
2019-02-02T14:33:24.441Z,69.70
2019-02-02T14:35:51.820Z,60.60
2019-02-02T14:38:20.380Z,67.83
2019-02-02T14:40:48.401Z,56.43
2019-02-02T14:43:15.764Z,58.33
2019-02-02T14:45:43.143Z,56.63
2019-02-02T14:48:10.512Z,59.57
2019-02-02T14:50:38.152Z,56.47
2019-02-02T14:53:05.659Z,55.77
2019-02-02T14:55:32.927Z,57.77
2019-02-02T14:58:00.207Z,57.30
2019-02-02T15:00:28.112Z,53.33
2019-02-02T15:02:55.394Z,61.80
2019-02-02T15:05:22.990Z,55.90
2019-02-02T15:07:50.463Z,56.73
2019-02-02T15:10:18.039Z,58.30
2019-02-02T15:12:45.685Z,60.63
2019-02-02T15:15:13.264Z,71.83
2019-02-02T15:17:40.565Z,51.67
2019-02-02T15:20:10.369Z,57.27
2019-02-02T15:22:38.253Z,76.30
2019-02-02T15:25:05.529Z,51.77
2019-02-02T15:27:33.074Z,52.17
2019-02-02T15:30:00.370Z,54.07
2019-02-02T15:32:28.309Z,57.90
2019-02-02T15:34:55.725Z,52.70
2019-02-02T15:37:22.988Z,48.03
2019-02-02T15:39:50.277Z,50.63
2019-02-02T15:42:17.622Z,44.57
2019-02-02T15:44:44.918Z,51.40
2019-02-02T15:47:12.203Z,54.33
2019-02-02T15:49:39.476Z,46.70
2019-02-02T15:52:06.752Z,54.53
2019-02-02T15:54:33.993Z,50.53
2019-02-02T15:57:01.285Z,47.80
2019-02-02T15:59:28.731Z,51.30
2019-02-02T16:01:55.994Z,56.60
2019-02-02T16:04:23.265Z,48.30
2019-02-02T16:06:50.525Z,43.60
2019-02-02T16:09:17.837Z,38.40
2019-02-02T16:11:45.103Z,42.73
2019-02-02T16:14:12.364Z,38.47
2019-02-02T16:16:39.705Z,38.73
2019-02-02T16:19:07.650Z,39.50
2019-02-02T16:21:35.030Z,34.70
2019-02-02T16:24:02.514Z,32.60
2019-02-02T16:26:29.905Z,38.17
2019-02-02T16:28:57.305Z,32.57
2019-02-02T16:31:24.645Z,34.13
2019-02-02T16:34:01.699Z,38.23
2019-02-02T16:36:21.141Z,37.33
2019-02-02T16:38:48.405Z,41.60
2019-02-02T16:41:15.695Z,41.27
2019-02-02T16:43:43.101Z,40.43
2019-02-02T16:46:10.980Z,43.60
2019-02-02T16:48:38.888Z,38.47
2019-02-02T16:51:06.275Z,38.30
2019-02-02T16:53:36.376Z,43.13
2019-02-02T16:56:03.857Z,45.40
2019-02-02T16:58:31.578Z,37.10
2019-02-02T17:01:38.393Z,40.83
2019-02-02T17:07:04.505Z,45.20
2019-02-02T17:09:31.944Z,44.40
2019-02-02T17:11:59.340Z,44.70
2019-02-02T17:14:26.712Z,45.27
2019-02-02T17:16:53.987Z,54.37
2019-02-02T17:19:21.669Z,51.17
2019-02-02T17:21:48.990Z,50.07
2019-02-02T17:24:16.242Z,51.87
2019-02-02T17:26:43.851Z,46.53
2019-02-02T17:29:11.389Z,53.40
2019-02-02T17:31:38.773Z,45.20
2019-02-02T17:34:06.138Z,50.10
2019-02-02T17:36:33.443Z,47.20
2019-02-02T17:39:00.780Z,42.53
2019-02-02T17:41:28.438Z,45.23
2019-02-02T17:43:55.818Z,49.80
2019-02-02T17:46:23.075Z,44.97
2019-02-02T17:48:50.416Z,48.07
2019-02-02T17:51:17.683Z,60.43
2019-02-02T17:53:45.045Z,52.03
2019-02-02T17:56:12.570Z,61.03
2019-02-02T17:58:40.105Z,56.20
2019-02-02T18:01:07.409Z,60.97
2019-02-02T18:03:35.233Z,67.80
2019-02-02T18:06:02.623Z,57.83
2019-02-02T18:08:29.960Z,62.37
2019-02-02T18:10:57.532Z,54.90
2019-02-02T18:13:24.839Z,55.30
2019-02-02T18:15:52.193Z,68.67
2019-02-02T18:18:19.485Z,76.90
2019-02-02T18:20:46.852Z,68.63
2019-02-02T18:23:14.138Z,57.47
2019-02-02T18:25:41.430Z,68.50
2019-02-02T18:28:09.761Z,69.83
2019-02-02T18:30:37.320Z,63.77
2019-02-02T18:33:04.622Z,76.33
2019-02-02T18:35:31.877Z,77.00
2019-02-02T18:37:59.153Z,91.77
2019-02-02T18:40:26.443Z,71.47
2019-02-02T18:42:53.798Z,83.30
2019-02-02T18:45:21.943Z,82.73
2019-02-02T18:47:49.234Z,77.93
2019-02-02T18:50:16.584Z,81.23
2019-02-02T18:52:44.099Z,72.90
2019-02-02T18:55:12.800Z,71.20
2019-02-02T18:57:40.330Z,81.10
2019-02-02T19:00:09.737Z,78.60
2019-02-02T19:02:37.387Z,70.20
2019-02-02T19:05:05.256Z,72.13
2019-02-02T19:07:32.887Z,70.53
2019-02-02T19:10:00.241Z,77.83
2019-02-02T19:12:27.507Z,72.97
2019-02-02T19:14:54.776Z,68.83
2019-02-02T19:17:22.075Z,69.00
2019-02-02T19:19:49.309Z,63.70
2019-02-02T19:22:16.958Z,60.50
2019-02-02T19:24:44.256Z,69.50
2019-02-02T19:27:11.516Z,65.37
2019-02-02T19:29:38.866Z,69.87
2019-02-02T19:32:06.510Z,63.40
2019-02-02T19:34:33.774Z,75.40
2019-02-02T19:37:01.284Z,69.20
2019-02-02T19:39:28.653Z,77.70
2019-02-02T19:41:55.993Z,73.80
2019-02-02T19:44:23.340Z,76.03
2019-02-02T19:46:50.619Z,74.27
2019-02-02T19:49:17.985Z,77.73
2019-02-02T19:51:45.388Z,76.83
2019-02-02T19:54:13.128Z,74.10
2019-02-02T19:56:40.515Z,69.57
2019-02-02T19:59:07.883Z,69.57
2019-02-02T20:01:35.152Z,77.53
2019-02-02T20:04:02.423Z,74.73
2019-02-02T20:06:29.683Z,86.13
2019-02-02T20:08:57.364Z,72.40
2019-02-02T20:11:24.726Z,74.67
2019-02-02T20:13:52.012Z,92.23
2019-02-02T20:16:19.582Z,76.27
2019-02-02T20:18:46.965Z,81.80
2019-02-02T20:21:14.485Z,83.40
2019-02-02T20:23:41.748Z,87.87
2019-02-02T20:26:09.016Z,69.07
2019-02-02T20:28:36.396Z,75.07
2019-02-02T20:31:03.647Z,70.13
2019-02-02T20:33:31.166Z,72.00
2019-02-02T20:35:58.489Z,90.03
2019-02-02T20:38:26.112Z,73.27
2019-02-02T20:40:53.618Z,82.23
2019-02-02T20:43:20.998Z,78.77
2019-02-02T20:45:48.359Z,89.03
2019-02-02T20:48:15.701Z,94.43
2019-02-02T20:50:43.054Z,76.97
2019-02-02T20:53:10.445Z,65.83
2019-02-02T20:55:39.240Z,78.63
2019-02-02T20:58:06.890Z,80.07
2019-02-02T21:00:34.333Z,85.77
2019-02-02T21:03:01.716Z,90.07
2019-02-02T21:05:31.789Z,74.17
2019-02-02T21:07:59.190Z,82.73
2019-02-02T21:10:26.993Z,80.27
2019-02-02T21:12:54.379Z,88.00
2019-02-02T21:15:21.824Z,80.67
2019-02-02T21:17:49.196Z,82.93
2019-02-02T21:20:20.565Z,90.17
2019-02-02T21:22:48.206Z,77.00
2019-02-02T21:25:15.881Z,88.03
2019-02-02T21:27:43.293Z,86.23
2019-02-02T21:30:12.309Z,87.67
2019-02-02T21:32:39.572Z,81.13
2019-02-02T21:35:07.078Z,95.67
2019-02-02T21:37:34.730Z,89.37
2019-02-02T21:40:02.092Z,92.47
2019-02-02T21:42:29.843Z,85.83
2019-02-02T21:44:57.453Z,86.53
2019-02-02T21:47:24.823Z,90.83
2019-02-02T21:49:52.170Z,95.13
2019-02-02T21:52:19.816Z,92.90
2019-02-02T21:54:47.089Z,99.17
2019-02-02T21:57:14.447Z,101.23
2019-02-02T21:59:41.693Z,93.40
2019-02-02T22:02:08.965Z,92.10
2019-02-02T22:04:36.225Z,91.73
2019-02-02T22:07:03.642Z,90.30
2019-02-02T22:09:31.572Z,83.30
2019-02-02T22:11:59.315Z,94.73
2019-02-02T22:14:26.956Z,90.97
2019-02-02T22:16:54.310Z,94.77
2019-02-02T22:19:21.674Z,93.23
2019-02-02T22:21:48.928Z,94.87
2019-02-02T22:24:16.511Z,85.43
2019-02-02T22:26:43.907Z,83.13
2019-02-02T22:29:11.397Z,86.43
2019-02-02T22:31:38.756Z,111.47
2019-02-02T22:34:06.146Z,92.80
2019-02-02T22:36:33.705Z,86.30
2019-02-02T22:39:01.053Z,101.40
2019-02-02T22:41:28.418Z,91.43
2019-02-02T22:43:55.842Z,82.27
2019-02-02T22:46:23.445Z,89.50
2019-02-02T22:48:50.802Z,96.23
2019-02-02T22:51:18.096Z,80.70
2019-02-02T22:53:45.732Z,87.47
2019-02-02T22:56:13.083Z,86.97
2019-02-02T22:58:40.799Z,78.77
2019-02-02T23:01:13.583Z,80.43
2019-02-02T23:03:56.497Z,77.97
2019-02-02T23:06:42.045Z,84.57
2019-02-02T23:09:44.035Z,78.00
2019-02-02T23:12:17.510Z,63.17
2019-02-02T23:15:02.740Z,70.27
2019-02-02T23:17:30.160Z,69.50
2019-02-02T23:20:00.346Z,62.30
2019-02-02T23:22:26.888Z,77.13
2019-02-02T23:24:54.537Z,75.23
2019-02-02T23:27:21.883Z,69.50
2019-02-02T23:29:49.259Z,67.00
2019-02-02T23:32:16.912Z,70.07
2019-02-02T23:34:44.271Z,63.53
2019-02-02T23:37:11.603Z,62.80
2019-02-02T23:39:38.983Z,67.40
2019-02-02T23:42:06.367Z,62.20
2019-02-02T23:44:33.724Z,73.10
2019-02-02T23:47:00.977Z,74.63
2019-02-02T23:49:28.354Z,77.43
2019-02-02T23:51:55.828Z,71.73
2019-02-02T23:54:23.450Z,68.70
2019-02-02T23:56:50.737Z,71.60
2019-02-02T23:59:18.092Z,70.47
